Time;durP1;ratioP1;P1;durP2;ratioP2;P2;SDS_P1;SDS_P2;PMS_P1;PMS_P2;Temp;Humidity;BMP_temperature;BMP_pressure;BME280_temperature;BME280_humidity;BME280_pressure;Samples;Min_cycle;Max_cycle;Signal;HPM_P1;HPM_P2
2022/07/11 00:02:25;;;;;;;4.35;1.50;;;15.70;66.50;;;;;;2261541;59;21117;-73
2022/07/11 00:04:52;;;;;;;3.58;1.42;;;15.70;67.50;;;;;;2260612;59;21030;-73
2022/07/11 00:07:20;;;;;;;3.45;1.77;;;15.70;66.60;;;;;;2441900;55;21712;-73
2022/07/11 00:09:47;;;;;;;3.75;1.60;;;15.70;66.30;;;;;;2267401;55;21066;-73
2022/07/11 00:12:15;;;;;;;4.35;1.62;;;15.70;66.30;;;;;;2298228;55;21118;-73
2022/07/11 00:14:42;;;;;;;9.50;1.90;;;15.70;66.30;;;;;;2261286;59;21565;-73
2022/07/11 00:17:10;;;;;;;3.95;2.47;;;15.70;66.40;;;;;;2260720;59;21040;-73
2022/07/11 00:19:38;;;;;;;6.87;2.33;;;15.80;66.30;;;;;;2259828;59;21529;-73
2022/07/11 00:22:07;;;;;;;5.10;1.70;;;15.70;66.20;;;;;;2261321;59;21043;-73
2022/07/11 00:24:35;;;;;;;3.12;1.80;;;15.70;66.30;;;;;;2260886;59;21525;-73
2022/07/11 00:27:02;;;;;;;3.90;1.62;;;15.70;66.30;;;;;;2259745;59;21556;-73
2022/07/11 00:29:29;;;;;;;5.15;1.98;;;15.70;66.40;;;;;;2264131;55;21063;-73
2022/07/11 00:31:57;;;;;;;5.85;1.67;;;15.70;66.50;;;;;;2266027;55;21039;-73
2022/07/11 00:34:24;;;;;;;3.15;1.85;;;15.70;66.60;;;;;;2260517;59;21090;-74
2022/07/11 00:36:52;;;;;;;2.92;1.65;;;15.70;66.40;;;;;;2260316;59;21656;-73
2022/07/11 00:39:20;;;;;;;2.45;1.77;;;15.70;66.60;;;;;;2261301;59;21179;-73
2022/07/11 00:41:47;;;;;;;3.62;1.75;;;15.70;66.70;;;;;;2261188;59;21031;-73
2022/07/11 00:44:14;;;;;;;5.20;2.00;;;15.60;66.70;;;;;;2393328;55;21055;-73
2022/07/11 00:46:42;;;;;;;4.65;1.50;;;15.60;66.50;;;;;;2260519;59;21039;-73
2022/07/11 00:49:10;;;;;;;3.97;1.55;;;15.60;66.50;;;;;;2261037;59;21123;-73
2022/07/11 00:51:37;;;;;;;7.57;2.35;;;15.60;66.70;;;;;;2261341;59;21039;-74
2022/07/11 00:54:08;;;;;;;6.50;1.83;;;15.60;66.70;;;;;;2261313;59;21062;-74
2022/07/11 00:56:35;;;;;;;5.50;1.62;;;15.60;66.90;;;;;;2260239;59;21138;-73
2022/07/11 00:59:03;;;;;;;3.00;1.67;;;15.60;66.90;;;;;;2260200;59;21059;-74
2022/07/11 01:01:34;;;;;;;8.32;1.77;;;15.50;67.00;;;;;;2261137;59;21111;-73
2022/07/11 01:04:02;;;;;;;6.47;2.10;;;15.50;67.30;;;;;;2260780;59;21309;-74
2022/07/11 01:06:30;;;;;;;8.77;2.40;;;15.50;67.50;;;;;;2263171;55;21051;-73
2022/07/11 01:08:57;;;;;;;7.55;2.12;;;15.50;67.60;;;;;;2261412;59;21115;-73
2022/07/11 01:11:26;;;;;;;7.07;1.90;;;15.50;67.70;;;;;;2261216;59;21121;-73
2022/07/11 01:13:54;;;;;;;5.72;2.17;;;15.40;67.90;;;;;;2260146;59;21071;-73
2022/07/11 01:16:22;;;;;;;4.05;1.65;;;15.50;68.00;;;;;;2260399;59;21633;-73
2022/07/11 01:18:51;;;;;;;4.65;2.00;;;15.40;68.00;;;;;;2259764;59;21561;-73
2022/07/11 01:21:22;;;;;;;9.75;2.50;;;15.40;68.00;;;;;;2259126;59;21297;-73
2022/07/11 01:23:52;;;;;;;5.18;1.80;;;15.40;68.10;;;;;;2259324;59;21088;-74
2022/07/11 01:26:20;;;;;;;8.02;2.30;;;15.40;68.10;;;;;;2259864;59;21198;-73
2022/07/11 01:28:48;;;;;;;6.37;2.00;;;15.40;68.10;;;;;;2261038;59;21047;-74
2022/07/11 01:31:15;;;;;;;11.32;3.05;;;15.30;68.00;;;;;;2286007;55;21118;-73
2022/07/11 01:33:43;;;;;;;3.00;1.90;;;15.30;67.70;;;;;;2260268;59;21058;-73
2022/07/11 01:36:12;;;;;;;8.55;2.53;;;15.30;67.50;;;;;;2259552;59;21050;-73
2022/07/11 01:38:39;;;;;;;5.50;2.10;;;15.30;67.30;;;;;;2261435;59;21027;-73
2022/07/11 01:41:07;;;;;;;5.95;2.22;;;15.30;67.40;;;;;;2260350;59;21043;-73
2022/07/11 01:43:34;;;;;;;5.30;1.58;;;15.30;68.40;;;;;;2261098;59;21553;-74
2022/07/11 01:46:02;;;;;;;5.12;2.40;;;15.30;67.50;;;;;;2261001;59;21047;-73
2022/07/11 01:48:29;;;;;;;4.65;1.80;;;15.30;67.40;;;;;;2259906;59;21059;-73
2022/07/11 01:50:56;;;;;;;4.43;2.00;;;15.30;67.30;;;;;;2311689;55;21124;-74
2022/07/11 01:53:24;;;;;;;4.07;1.83;;;15.30;67.40;;;;;;2431215;55;21140;-73
2022/07/11 01:55:52;;;;;;;5.20;2.17;;;15.30;67.50;;;;;;2260632;59;21712;-73
2022/07/11 01:58:19;;;;;;;8.20;2.08;;;15.20;67.40;;;;;;2259291;59;21138;-73
2022/07/11 02:00:46;;;;;;;9.07;2.40;;;15.20;67.50;;;;;;2260007;59;21546;-74
2022/07/11 02:03:14;;;;;;;4.50;1.70;;;15.20;67.80;;;;;;2261295;59;21123;-73
2022/07/11 02:05:41;;;;;;;4.53;2.00;;;15.10;68.00;;;;;;2259015;59;21146;-73
2022/07/11 02:08:13;;;;;;;4.05;2.12;;;15.10;68.20;;;;;;2261219;59;21103;-73
2022/07/11 02:10:42;;;;;;;5.37;1.98;;;15.10;68.40;;;;;;2261217;59;21047;-74
2022/07/11 02:13:10;;;;;;;3.67;1.55;;;15.00;68.50;;;;;;2261493;59;21070;-73
2022/07/11 02:15:37;;;;;;;5.10;1.73;;;15.00;68.60;;;;;;2260323;59;21130;-73
2022/07/11 02:18:04;;;;;;;5.15;1.92;;;15.00;68.80;;;;;;2260461;59;21063;-73
2022/07/11 02:20:32;;;;;;;7.90;2.28;;;15.00;68.80;;;;;;2260264;59;21444;-73
2022/07/11 02:23:00;;;;;;;8.30;2.10;;;15.00;68.80;;;;;;2261065;59;21574;-73
2022/07/11 02:28:04;;;;;;;3.87;2.00;;;15.00;68.80;;;;;;2356040;57;22555;-74
2022/07/11 02:30:32;;;;;;;9.77;2.22;;;14.90;68.90;;;;;;2362220;56;21115;-75
2022/07/11 02:33:00;;;;;;;4.95;1.90;;;14.90;68.80;;;;;;2374901;56;21058;-75
2022/07/11 02:35:27;;;;;;;7.07;2.30;;;14.90;69.00;;;;;;2374032;56;21125;-75
2022/07/11 02:37:55;;;;;;;5.37;1.83;;;14.80;69.10;;;;;;2374717;56;21035;-75
2022/07/11 02:40:22;;;;;;;6.12;1.92;;;14.80;69.30;;;;;;2374829;56;21117;-75
2022/07/11 02:42:49;;;;;;;4.25;2.12;;;14.80;69.50;;;;;;2375339;56;21734;-75
2022/07/11 02:45:17;;;;;;;7.30;2.62;;;14.70;69.70;;;;;;2373985;56;21118;-75
2022/07/11 02:47:45;;;;;;;5.93;2.22;;;14.70;69.70;;;;;;2374420;56;21143;-75
2022/07/11 02:50:14;;;;;;;4.57;1.87;;;14.70;70.00;;;;;;2374255;56;21051;-75
2022/07/11 02:52:42;;;;;;;5.37;2.20;;;14.70;69.90;;;;;;2374493;56;21043;-75
2022/07/11 02:55:11;;;;;;;7.37;2.12;;;14.70;70.10;;;;;;2374744;56;21106;-75
2022/07/11 02:57:39;;;;;;;7.00;2.03;;;14.70;70.30;;;;;;2374603;56;21087;-75
2022/07/11 03:00:10;;;;;;;4.97;2.30;;;14.60;70.60;;;;;;2374082;56;21050;-75
2022/07/11 03:02:37;;;;;;;6.03;2.25;;;14.60;70.70;;;;;;2374767;56;21067;-75
2022/07/11 03:05:06;;;;;;;8.75;2.42;;;14.60;70.70;;;;;;2373733;56;21023;-75
2022/07/11 03:07:33;;;;;;;6.62;2.05;;;14.60;70.70;;;;;;2374393;56;21050;-75
2022/07/11 03:10:01;;;;;;;7.30;2.08;;;14.60;70.80;;;;;;2373741;56;21537;-75
2022/07/11 03:12:28;;;;;;;6.12;2.30;;;14.60;70.70;;;;;;2374159;56;21055;-75
2022/07/11 03:14:55;;;;;;;7.28;2.20;;;14.60;70.80;;;;;;2411371;52;21058;-75
2022/07/11 03:17:23;;;;;;;4.65;1.60;;;14.60;70.90;;;;;;2374235;56;21047;-75
2022/07/11 03:19:50;;;;;;;4.80;2.25;;;14.50;70.90;;;;;;2374217;56;21447;-75
2022/07/11 03:22:18;;;;;;;6.05;2.28;;;14.50;71.00;;;;;;2374927;56;21141;-75
2022/07/11 03:24:46;;;;;;;3.22;1.87;;;14.60;70.90;;;;;;2374966;56;21584;-75
2022/07/11 03:27:13;;;;;;;6.03;2.30;;;14.60;70.70;;;;;;2374072;56;21110;-75
2022/07/11 03:29:40;;;;;;;8.48;3.28;;;14.60;70.80;;;;;;2374596;56;21094;-75
2022/07/11 03:32:09;;;;;;;5.07;2.33;;;14.60;70.60;;;;;;2374223;56;21038;-75
2022/07/11 03:34:36;;;;;;;4.85;1.90;;;14.60;70.60;;;;;;2374052;56;21078;-75
2022/07/11 03:37:04;;;;;;;6.60;2.50;;;14.50;70.60;;;;;;2407501;52;21097;-75
2022/07/11 03:39:32;;;;;;;7.00;2.85;;;14.50;70.80;;;;;;2372995;56;21054;-75
2022/07/11 03:41:59;;;;;;;6.18;2.00;;;14.50;70.90;;;;;;2373464;56;21146;-75
2022/07/11 03:44:27;;;;;;;2.83;1.80;;;14.50;71.10;;;;;;2373662;56;21086;-75
2022/07/11 03:46:54;;;;;;;9.13;2.47;;;14.50;71.10;;;;;;2373165;56;21059;-75
2022/07/11 03:49:21;;;;;;;7.18;2.50;;;14.50;71.10;;;;;;2373194;56;21035;-75
2022/07/11 03:51:49;;;;;;;5.60;2.25;;;14.40;71.10;;;;;;2373713;56;21098;-75
2022/07/11 03:54:16;;;;;;;7.25;3.30;;;14.50;71.10;;;;;;2374149;56;21127;-75
2022/07/11 03:56:43;;;;;;;4.85;2.22;;;14.50;71.20;;;;;;2373466;56;21034;-75
2022/07/11 03:59:11;;;;;;;4.35;2.08;;;14.50;71.30;;;;;;2373303;56;21051;-75
2022/07/11 04:01:38;;;;;;;7.28;2.30;;;14.50;71.40;;;;;;2374158;56;21605;-75
2022/07/11 04:04:08;;;;;;;4.43;2.00;;;14.50;71.50;;;;;;2373117;56;21063;-75
2022/07/11 04:06:35;;;;;;;5.55;2.30;;;14.50;71.60;;;;;;2455789;52;21059;-75
2022/07/11 04:09:03;;;;;;;8.23;2.67;;;14.50;71.60;;;;;;2374144;56;21181;-75
2022/07/11 04:11:30;;;;;;;11.40;2.65;;;14.50;71.60;;;;;;2373671;56;21039;-75
2022/07/11 04:13:58;;;;;;;6.20;2.17;;;14.50;71.70;;;;;;2374001;56;21051;-75
2022/07/11 04:16:25;;;;;;;9.90;2.20;;;14.50;71.80;;;;;;2372993;56;21023;-75
2022/07/11 04:18:52;;;;;;;8.68;2.58;;;14.50;71.90;;;;;;2373505;56;21028;-75
2022/07/11 04:21:20;;;;;;;10.18;2.42;;;14.50;72.00;;;;;;2529589;52;21138;-75
2022/07/11 04:23:47;;;;;;;8.23;2.30;;;14.50;72.00;;;;;;2373552;56;21051;-75
2022/07/11 04:26:15;;;;;;;6.80;2.10;;;14.50;72.00;;;;;;2372892;56;22715;-75
2022/07/11 04:28:43;;;;;;;9.57;3.65;;;14.50;72.00;;;;;;2373899;56;21130;-75
2022/07/11 04:31:10;;;;;;;8.13;2.17;;;14.60;72.20;;;;;;2500557;52;21050;-75
2022/07/11 04:33:38;;;;;;;6.18;2.30;;;14.60;72.40;;;;;;2524459;54;71680;-81
2022/07/11 04:36:06;;;;;;;7.45;2.42;;;14.60;72.50;;;;;;2541586;54;21046;-81
2022/07/11 04:38:33;;;;;;;10.45;2.08;;;14.60;72.70;;;;;;2541873;54;21101;-81
2022/07/11 04:41:01;;;;;;;6.32;2.47;;;14.60;73.00;;;;;;2541866;54;21137;-81
2022/07/11 04:43:28;;;;;;;11.52;2.70;;;14.60;72.80;;;;;;2537567;54;21089;-81
2022/07/11 04:48:32;;;;;;;8.82;2.72;;;14.60;73.00;;;;;;2328056;57;22586;-73
2022/07/11 04:50:59;;;;;;;9.32;2.58;;;14.60;73.40;;;;;;2347050;57;21047;-73
2022/07/11 04:53:27;;;;;;;8.73;2.30;;;14.60;73.70;;;;;;2347037;57;21063;-73
2022/07/11 04:55:54;;;;;;;9.63;2.33;;;14.60;73.90;;;;;;2346438;57;21095;-73
2022/07/11 05:00:43;;;;;;;6.95;2.37;;;14.60;74.00;;;;;;2372082;54;25555;-73
2022/07/11 05:03:11;;;;;;;9.50;2.60;;;14.60;74.30;;;;;;2346390;57;21042;-73
2022/07/11 05:05:38;;;;;;;6.35;2.28;;;14.60;74.50;;;;;;2346203;57;21121;-73
2022/07/11 05:08:06;;;;;;;5.90;2.60;;;14.60;74.50;;;;;;2347221;57;21520;-73
2022/07/11 05:10:36;;;;;;;10.00;2.55;;;14.60;74.80;;;;;;2347691;57;21061;-73
2022/07/11 05:13:03;;;;;;;8.32;2.08;;;14.50;75.10;;;;;;2347646;57;21054;-73
2022/07/11 05:15:31;;;;;;;5.28;2.37;;;14.50;75.20;;;;;;2592656;53;21093;-73
2022/07/11 05:17:58;;;;;;;7.45;2.50;;;14.50;75.30;;;;;;2346927;57;21049;-73
2022/07/11 05:20:26;;;;;;;11.68;2.42;;;14.60;75.30;;;;;;2346467;57;21061;-73
2022/07/11 05:22:53;;;;;;;11.27;2.70;;;14.60;75.20;;;;;;2347602;57;21030;-73
2022/07/11 05:25:20;;;;;;;9.45;2.70;;;14.70;74.90;;;;;;2344511;57;21049;-73
2022/07/11 05:27:48;;;;;;;12.63;2.70;;;14.70;74.80;;;;;;2346389;57;21030;-74
2022/07/11 05:30:15;;;;;;;5.82;2.50;;;14.70;74.80;;;;;;2346818;57;21061;-74
2022/07/11 05:32:43;;;;;;;10.27;2.60;;;14.70;74.80;;;;;;2594205;52;21054;-74
2022/07/11 05:35:10;;;;;;;13.55;2.75;;;14.80;74.90;;;;;;2346303;57;21085;-74
2022/07/11 05:37:37;;;;;;;4.62;2.30;;;14.80;74.30;;;;;;2347168;57;21588;-74
2022/07/11 05:40:07;;;;;;;7.50;2.37;;;14.80;74.40;;;;;;2594258;52;21077;-74
2022/07/11 05:42:35;;;;;;;8.00;2.45;;;14.90;74.00;;;;;;2346231;57;21211;-74
2022/07/11 05:45:03;;;;;;;7.28;2.37;;;14.90;74.10;;;;;;2346967;57;21117;-74
2022/07/11 05:47:30;;;;;;;8.43;2.28;;;15.00;74.20;;;;;;2346868;57;21033;-74
2022/07/11 05:49:58;;;;;;;5.00;2.00;;;14.90;74.10;;;;;;2347175;57;21046;-74
2022/07/11 05:52:25;;;;;;;6.20;2.17;;;15.00;74.40;;;;;;2347031;57;21046;-73
2022/07/11 05:54:53;;;;;;;6.18;1.90;;;15.00;74.10;;;;;;2594971;53;21113;-73
2022/07/11 05:57:20;;;;;;;8.02;2.00;;;15.10;73.70;;;;;;2347056;57;21151;-73
2022/07/11 05:59:48;;;;;;;9.48;2.58;;;15.10;73.60;;;;;;2344707;57;21077;-73
2022/07/11 06:02:15;;;;;;;9.27;2.22;;;15.20;73.50;;;;;;2345460;57;21120;-73
2022/07/11 06:04:44;;;;;;;8.48;2.17;;;15.10;73.60;;;;;;2343430;57;21066;-73
2022/07/11 06:08:40;;;;;;;5.30;2.35;;;15.20;73.80;;;;;;2345197;57;21181;-74
2022/07/11 06:11:07;;;;;;;14.32;2.17;;;15.10;74.10;;;;;;2345302;57;21053;-74
2022/07/11 06:13:36;;;;;;;10.15;2.08;;;15.20;74.10;;;;;;2346021;57;21105;-73
2022/07/11 06:16:05;;;;;;;6.18;2.03;;;15.20;74.30;;;;;;2345470;57;21046;-74
2022/07/11 06:18:32;;;;;;;6.35;1.85;;;15.20;74.50;;;;;;2345262;57;21089;-74
2022/07/11 06:21:00;;;;;;;5.22;2.05;;;15.20;74.40;;;;;;2344159;57;21092;-74
2022/07/11 06:23:28;;;;;;;9.48;2.65;;;15.30;74.40;;;;;;2343793;57;21050;-74
2022/07/11 06:25:55;;;;;;;7.68;2.22;;;15.30;74.30;;;;;;2590081;53;21121;-73
2022/07/11 06:28:23;;;;;;;5.82;2.20;;;15.30;74.40;;;;;;2344526;57;21128;-73
2022/07/11 06:33:27;;;;;;;8.35;2.40;;;15.40;74.50;;;;;;2322873;57;22123;-75
2022/07/11 06:35:54;;;;;;;5.15;1.90;;;15.50;74.50;;;;;;2342890;57;21635;-73
2022/07/11 06:38:22;;;;;;;4.00;1.60;;;15.50;73.60;;;;;;2345289;57;21807;-74
2022/07/11 06:40:49;;;;;;;5.07;1.90;;;15.60;73.40;;;;;;2363576;56;21034;-73
2022/07/11 06:43:16;;;;;;;7.32;1.75;;;15.60;73.40;;;;;;2370999;56;21035;-74
2022/07/11 06:45:44;;;;;;;7.68;1.55;;;15.60;73.50;;;;;;2372503;56;21047;-74
2022/07/11 06:48:11;;;;;;;5.45;2.08;;;15.70;73.40;;;;;;2372560;56;21039;-74
2022/07/11 06:50:39;;;;;;;4.75;1.40;;;15.70;72.90;;;;;;2373453;56;21051;-74
2022/07/11 06:53:07;;;;;;;5.53;2.28;;;15.80;72.70;;;;;;2625464;52;21058;-74
2022/07/11 06:55:35;;;;;;;5.70;1.48;;;15.80;72.50;;;;;;2373181;56;22248;-73
2022/07/11 06:58:02;;;;;;;6.32;1.87;;;15.80;71.80;;;;;;2373674;56;21103;-74
2022/07/11 07:00:30;;;;;;;5.28;2.00;;;15.90;71.80;;;;;;2626774;52;21118;-74
2022/07/11 07:02:57;;;;;;;2.30;1.20;;;15.90;71.80;;;;;;2372499;56;21106;-74
2022/07/11 07:05:25;;;;;;;4.95;1.23;;;16.00;71.70;;;;;;2372785;56;21043;-74
2022/07/11 07:07:53;;;;;;;3.25;1.23;;;16.00;71.30;;;;;;2372842;56;21119;-74
2022/07/11 07:10:20;;;;;;;2.83;1.20;;;16.10;71.40;;;;;;2625503;51;21126;-73
2022/07/11 07:12:48;;;;;;;4.07;1.50;;;16.10;71.60;;;;;;2374539;56;21051;-74
2022/07/11 07:15:15;;;;;;;6.47;1.73;;;16.20;71.60;;;;;;2373985;56;21181;-74
2022/07/11 07:17:43;;;;;;;7.60;1.30;;;16.30;71.20;;;;;;2374343;56;21050;-73
2022/07/11 07:20:12;;;;;;;7.25;1.33;;;16.40;70.40;;;;;;2374489;56;21145;-74
2022/07/11 07:22:40;;;;;;;3.08;1.15;;;16.40;69.90;;;;;;2372951;56;21043;-74
2022/07/11 07:25:09;;;;;;;3.85;1.73;;;16.50;69.70;;;;;;2373719;56;21066;-74
2022/07/11 07:27:37;;;;;;;5.28;1.37;;;16.60;69.40;;;;;;2372687;56;21078;-73
2022/07/11 07:30:06;;;;;;;3.58;0.93;;;16.60;69.10;;;;;;2373383;56;21070;-73
2022/07/11 07:32:34;;;;;;;4.25;1.20;;;16.70;68.80;;;;;;2373853;56;21066;-74
2022/07/11 07:35:01;;;;;;;1.75;1.12;;;16.80;68.70;;;;;;2372875;56;21121;-74
2022/07/11 07:37:28;;;;;;;2.80;1.10;;;16.90;68.30;;;;;;2373469;56;21596;-74
2022/07/11 07:39:56;;;;;;;6.35;1.40;;;16.90;68.10;;;;;;2373390;56;21048;-75
2022/07/11 07:42:23;;;;;;;4.20;1.17;;;17.00;68.10;;;;;;2373285;56;21069;-75
2022/07/11 07:44:51;;;;;;;1.62;1.02;;;17.10;68.10;;;;;;2371896;56;21126;-74
2022/07/11 07:47:18;;;;;;;5.25;1.10;;;17.10;66.90;;;;;;2372458;56;21051;-73
2022/07/11 07:49:46;;;;;;;2.17;0.80;;;17.20;66.30;;;;;;2625522;52;21134;-74
2022/07/11 07:52:13;;;;;;;1.17;1.00;;;17.30;65.60;;;;;;2372466;56;21051;-74
2022/07/11 07:54:41;;;;;;;3.12;1.02;;;17.30;65.80;;;;;;2372955;56;21301;-74
2022/07/11 07:57:09;;;;;;;1.77;0.88;;;17.40;65.00;;;;;;2372208;56;21054;-74
2022/07/11 07:59:36;;;;;;;2.10;0.90;;;17.40;64.90;;;;;;2373069;56;21071;-74
2022/07/11 08:02:04;;;;;;;1.60;0.80;;;17.50;64.80;;;;;;2371422;56;21031;-75
2022/07/11 08:04:32;;;;;;;5.22;1.45;;;17.50;64.10;;;;;;2624112;52;21054;-74
2022/07/11 08:06:59;;;;;;;1.48;1.00;;;17.50;64.10;;;;;;2624077;52;21809;-75
2022/07/11 08:12:03;;;;;;;2.93;1.23;;;17.50;63.50;;;;;;2307862;57;28416;-72
2022/07/11 08:14:31;;;;;;;1.67;0.90;;;17.50;65.00;;;;;;2346518;57;21265;-73
2022/07/11 08:16:58;;;;;;;3.80;1.02;;;17.60;64.70;;;;;;2346219;57;21053;-73
2022/07/11 08:19:27;;;;;;;2.67;0.85;;;17.70;64.00;;;;;;2350237;56;22203;-73
2022/07/11 08:21:55;;;;;;;2.42;1.10;;;17.80;64.30;;;;;;2388164;56;21354;-72
2022/07/11 08:24:22;;;;;;;3.15;0.90;;;17.90;64.30;;;;;;2388477;56;21047;-72
2022/07/11 08:26:50;;;;;;;2.08;1.10;;;18.00;63.70;;;;;;2388239;56;21529;-72
2022/07/11 08:29:17;;;;;;;3.78;1.30;;;18.10;63.30;;;;;;2644299;52;21034;-72
2022/07/11 08:31:44;;;;;;;1.67;0.70;;;18.20;63.60;;;;;;2387818;56;21113;-73
2022/07/11 08:34:12;;;;;;;3.80;1.15;;;18.20;63.00;;;;;;2387415;56;21134;-73
2022/07/11 08:36:40;;;;;;;2.05;0.88;;;18.20;62.50;;;;;;2387863;56;21034;-72
2022/07/11 08:39:07;;;;;;;4.72;1.20;;;18.30;62.40;;;;;;2387650;56;21113;-73
2022/07/11 08:41:42;;;;;;;3.12;0.88;;;18.40;61.80;;;;;;2388495;56;21049;-73
2022/07/11 08:44:11;;;;;;;1.95;0.73;;;18.40;61.60;;;;;;2644560;52;21047;-73
2022/07/11 08:46:41;;;;;;;4.10;1.23;;;18.50;61.70;;;;;;2387281;56;21520;-72
2022/07/11 08:49:08;;;;;;;1.15;0.95;;;18.60;62.10;;;;;;2388465;56;21627;-73
2022/07/11 08:51:38;;;;;;;3.35;1.08;;;18.70;61.80;;;;;;2388420;56;21086;-72
2022/07/11 08:54:05;;;;;;;3.80;0.80;;;18.80;61.00;;;;;;2645378;52;21557;-72
2022/07/11 08:56:33;;;;;;;7.22;1.25;;;18.90;59.70;;;;;;2388820;56;21105;-72
2022/07/11 08:59:02;;;;;;;1.75;0.85;;;18.90;59.00;;;;;;2388275;56;21051;-72
2022/07/11 09:01:31;;;;;;;5.22;1.30;;;18.90;58.90;;;;;;2388586;56;21102;-72
2022/07/11 09:03:59;;;;;;;3.08;1.00;;;18.80;58.50;;;;;;2387141;56;21026;-72
2022/07/11 09:06:27;;;;;;;2.85;0.80;;;18.80;58.60;;;;;;2387988;56;21675;-72
2022/07/11 09:08:59;;;;;;;2.92;0.80;;;18.90;58.90;;;;;;2388569;56;21102;-72
2022/07/11 09:11:27;;;;;;;3.58;1.00;;;18.90;58.30;;;;;;2388380;56;21533;-72
2022/07/11 09:13:55;;;;;;;3.00;1.05;;;18.90;57.80;;;;;;2388673;56;21023;-72
2022/07/11 09:16:26;;;;;;;4.57;1.10;;;19.00;57.30;;;;;;2644181;52;21101;-72
2022/07/11 09:18:54;;;;;;;3.37;0.80;;;19.00;57.00;;;;;;2644847;52;21038;-72
2022/07/11 09:26:53;;;;;;;3.03;0.90;;;19.10;57.40;;;;;;2386457;56;21053;-73
2022/07/11 09:29:24;;;;;;;1.05;0.90;;;19.10;57.10;;;;;;2387596;56;21058;-73
2022/07/11 09:31:51;;;;;;;3.22;1.25;;;19.10;56.70;;;;;;2386934;56;21612;-73
2022/07/11 09:34:20;;;;;;;1.42;0.80;;;19.20;56.50;;;;;;2386700;56;21121;-72
2022/07/11 09:36:50;;;;;;;1.05;0.82;;;19.30;56.80;;;;;;2386348;56;21014;-73
2022/07/11 09:39:19;;;;;;;1.77;1.05;;;19.40;57.00;;;;;;2386395;56;21034;-72
2022/07/11 09:41:49;;;;;;;2.20;0.90;;;19.50;56.80;;;;;;2387314;56;21609;-73
2022/07/11 09:44:18;;;;;;;2.33;1.05;;;19.50;56.70;;;;;;2387049;56;21022;-72
2022/07/11 09:46:46;;;;;;;2.42;0.95;;;19.60;56.80;;;;;;2643765;52;21018;-73
2022/07/11 09:49:15;;;;;;;1.20;0.70;;;19.70;57.10;;;;;;2386271;56;21094;-72
2022/07/11 09:51:43;;;;;;;3.33;0.90;;;19.70;56.90;;;;;;2642880;51;21081;-72
2022/07/11 09:54:11;;;;;;;2.08;1.00;;;19.80;56.30;;;;;;2386644;56;21157;-72
2022/07/11 09:56:41;;;;;;;2.33;0.88;;;19.80;55.30;;;;;;2384917;56;21039;-73
2022/07/11 09:59:10;;;;;;;3.47;1.10;;;19.90;55.00;;;;;;2387529;56;21034;-73
2022/07/11 10:01:38;;;;;;;0.95;0.77;;;19.90;54.60;;;;;;2387513;56;21035;-72
2022/07/11 10:04:07;;;;;;;2.05;1.00;;;19.90;54.30;;;;;;2387234;56;21101;-72
2022/07/11 10:06:37;;;;;;;1.83;0.82;;;19.90;54.30;;;;;;2385853;56;21177;-73
2022/07/11 10:09:06;;;;;;;1.37;0.60;;;19.90;54.80;;;;;;2386685;56;21539;-74
2022/07/11 10:11:34;;;;;;;1.75;0.82;;;19.90;54.50;;;;;;2386862;56;21054;-73
2022/07/11 10:14:03;;;;;;;1.02;0.60;;;19.80;53.10;;;;;;2641582;52;21073;-73
2022/07/11 10:16:40;;;;;;;1.67;0.90;;;19.80;52.90;;;;;;2387148;56;21548;-73
2022/07/11 10:19:20;;;;;;;1.52;0.77;;;19.80;52.60;;;;;;2386882;56;21034;-73
2022/07/11 10:21:54;;;;;;;1.60;1.10;;;19.90;52.80;;;;;;2644942;52;21050;-73
2022/07/11 10:24:34;;;;;;;2.45;1.25;;;20.00;54.00;;;;;;2644495;52;21038;-73
2022/07/11 10:27:16;;;;;;;5.07;1.00;;;20.00;54.10;;;;;;2387040;56;21018;-73
2022/07/11 10:29:50;;;;;;;2.97;0.95;;;20.10;54.00;;;;;;2386318;56;21488;-74
2022/07/11 10:32:19;;;;;;;3.30;1.10;;;20.20;54.30;;;;;;2386333;54;21509;-75
2022/07/11 10:35:05;;;;;;;3.55;0.73;;;20.20;54.10;;;;;;2235380;60;21171;-77
2022/07/11 10:37:47;;;;;;;1.52;0.80;;;20.30;54.10;;;;;;2457623;56;21065;-76
2022/07/11 10:40:14;;;;;;;2.40;0.80;;;20.40;52.70;;;;;;2242347;60;21071;-75
2022/07/11 10:42:43;;;;;;;1.58;0.95;;;20.40;52.50;;;;;;2251456;60;21123;-76
2022/07/11 10:47:47;;;;;;;1.20;0.80;;;20.60;52.40;;;;;;2326680;57;22143;-76
2022/07/11 10:50:32;;;;;;;0.55;0.50;;;20.60;52.20;;;;;;2364762;56;21085;-76
2022/07/11 10:53:06;;;;;;;2.22;0.80;;;20.60;51.50;;;;;;2388840;56;21410;-76
2022/07/11 10:55:40;;;;;;;3.08;0.80;;;20.60;51.50;;;;;;2387550;56;21022;-76
2022/07/11 10:58:13;;;;;;;1.98;1.02;;;20.60;51.60;;;;;;2387440;56;21061;-76
2022/07/11 11:00:41;;;;;;;1.95;0.77;;;20.70;51.80;;;;;;2387649;56;21273;-77
2022/07/11 11:03:10;;;;;;;2.33;0.77;;;20.70;52.10;;;;;;2386522;56;21129;-76
2022/07/11 11:05:48;;;;;;;1.80;0.82;;;20.80;51.90;;;;;;2386230;56;21105;-75
2022/07/11 11:08:43;;;;;;;1.20;0.70;;;20.80;51.80;;;;;;2387720;56;21062;-76
2022/07/11 11:14:22;;;;;;;1.10;0.88;;;21.10;51.10;;;;;;2353860;57;22152;-76
2022/07/11 11:16:51;;;;;;;1.48;0.60;;;21.20;51.40;;;;;;2345974;57;21144;-74
2022/07/11 11:19:52;;;;;;;2.03;0.95;;;21.30;49.90;;;;;;2594419;52;21045;-76
2022/07/11 11:22:21;;;;;;;1.48;0.75;;;21.50;49.70;;;;;;2372111;56;21054;-76
2022/07/11 11:24:51;;;;;;;0.85;0.50;;;21.50;49.50;;;;;;2373744;56;21035;-76
2022/07/11 11:27:21;;;;;;;1.98;0.85;;;21.60;49.80;;;;;;2373139;56;21063;-76
2022/07/11 11:29:52;;;;;;;2.53;0.70;;;21.70;49.50;;;;;;2373259;56;21589;-75
2022/07/11 11:32:20;;;;;;;2.10;0.88;;;21.80;49.50;;;;;;2373447;56;21123;-75
2022/07/11 11:34:49;;;;;;;0.88;0.47;;;22.00;49.10;;;;;;2373732;56;21034;-75
2022/07/11 11:37:17;;;;;;;1.58;0.85;;;22.10;49.30;;;;;;2372009;56;21121;-76
2022/07/11 11:39:45;;;;;;;2.47;0.80;;;22.30;48.80;;;;;;2372956;56;21129;-74
2022/07/11 11:42:17;;;;;;;1.55;0.75;;;22.40;47.80;;;;;;2373184;56;21125;-77
2022/07/11 11:44:56;;;;;;;1.17;0.55;;;22.40;47.10;;;;;;2373639;56;21035;-75
2022/07/11 11:47:24;;;;;;;4.53;0.70;;;22.50;47.50;;;;;;2371897;56;21051;-76
2022/07/11 11:52:29;;;;;;;1.77;0.75;;;22.60;47.10;;;;;;2354353;57;22082;-74
2022/07/11 11:54:58;;;;;;;2.42;0.75;;;22.90;46.60;;;;;;2345130;57;21143;-74
2022/07/11 11:57:26;;;;;;;3.83;0.70;;;23.00;46.20;;;;;;2345574;57;21064;-75
2022/07/11 11:59:54;;;;;;;1.45;0.70;;;23.20;46.60;;;;;;2353455;56;21403;-75
2022/07/11 12:02:29;;;;;;;2.25;0.88;;;23.40;46.30;;;;;;2373269;56;21137;-75
2022/07/11 12:04:58;;;;;;;0.77;0.50;;;23.50;46.30;;;;;;2373683;56;21107;-75
2022/07/11 12:07:28;;;;;;;2.53;0.70;;;23.50;45.90;;;;;;2373330;56;21130;-75
2022/07/11 12:09:57;;;;;;;2.95;0.80;;;23.60;46.00;;;;;;2373852;56;21035;-74
2022/07/11 12:12:47;;;;;;;1.67;0.70;;;23.80;46.00;;;;;;2373048;56;21044;-75
2022/07/11 12:15:31;;;;;;;1.27;0.70;;;23.90;45.70;;;;;;2373912;56;21027;-73
2022/07/11 12:18:00;;;;;;;3.40;0.70;;;24.00;45.00;;;;;;2373384;56;21031;-74
2022/07/11 12:20:41;;;;;;;1.60;0.90;;;24.00;44.70;;;;;;2373709;56;21063;-73
2022/07/11 12:23:11;;;;;;;2.45;0.57;;;24.10;45.30;;;;;;2373193;56;21038;-74
2022/07/11 12:25:39;;;;;;;1.50;0.43;;;24.30;45.30;;;;;;2626356;52;21154;-74
2022/07/11 12:30:42;;;;;;;2.25;0.77;;;24.60;45.40;;;;;;2326314;57;22130;-74
2022/07/11 12:33:12;;;;;;;0.60;0.47;;;24.70;45.10;;;;;;2317959;58;21126;-74
2022/07/11 12:35:54;;;;;;;0.62;0.47;;;24.90;44.50;;;;;;2558593;54;21587;-76
2022/07/11 12:38:22;;;;;;;2.27;0.80;;;25.10;43.90;;;;;;2318187;58;21023;-75
2022/07/11 12:41:03;;;;;;;2.00;0.73;;;25.10;42.90;;;;;;2318911;58;21268;-75
2022/07/11 12:46:32;;;;;;;1.90;0.70;;;24.60;43.80;;;;;;2317475;58;20986;-75
2022/07/11 12:49:03;;;;;;;1.27;0.70;;;24.40;44.50;;;;;;2318469;58;21117;-75
2022/07/11 12:51:34;;;;;;;2.65;0.60;;;24.20;44.40;;;;;;2318445;58;21059;-75
2022/07/11 12:54:04;;;;;;;0.57;0.47;;;24.20;44.70;;;;;;2317067;58;21102;-75
2022/07/11 12:56:32;;;;;;;2.55;0.90;;;24.00;42.80;;;;;;2316668;58;21065;-75
2022/07/11 12:59:01;;;;;;;1.60;0.68;;;24.00;42.90;;;;;;2317836;58;21197;-75
2022/07/11 13:01:29;;;;;;;2.78;0.82;;;23.90;43.50;;;;;;2318116;58;21047;-75
2022/07/11 13:03:57;;;;;;;1.50;0.82;;;23.90;43.90;;;;;;2318398;58;21042;-75
2022/07/11 13:09:13;;;;;;;1.02;0.60;;;23.80;45.70;;;;;;2317569;58;21676;-76
2022/07/11 13:11:41;;;;;;;1.02;0.50;;;23.80;45.80;;;;;;2318637;58;21121;-76
2022/07/11 13:15:08;;;;;;;0.80;0.60;;;23.70;45.10;;;;;;2318593;58;21023;-75
2022/07/11 13:17:37;;;;;;;0.60;0.47;;;23.60;45.70;;;;;;2318077;58;21114;-75
2022/07/11 13:20:08;;;;;;;2.97;0.68;;;23.50;45.10;;;;;;2316569;58;21058;-75
2022/07/11 13:22:35;;;;;;;2.15;0.70;;;23.50;44.90;;;;;;2558838;54;21086;-75
2022/07/11 13:25:03;;;;;;;0.88;0.55;;;23.70;44.70;;;;;;2318430;58;21522;-75
2022/07/11 13:27:32;;;;;;;0.73;0.50;;;23.80;45.40;;;;;;2317669;58;21098;-75
2022/07/11 13:29:59;;;;;;;0.93;0.40;;;24.00;45.60;;;;;;2318642;58;21034;-75
2022/07/11 13:32:26;;;;;;;2.50;0.60;;;24.10;45.10;;;;;;2318740;58;21042;-75